createdAt,value
2019-02-07T00:00:43.178Z,10.77
2019-02-07T00:03:33.234Z,11.60
2019-02-07T00:06:23.695Z,11.90
2019-02-07T00:09:13.746Z,11.93
2019-02-07T00:12:03.888Z,12.43
2019-02-07T00:14:54.362Z,11.37
2019-02-07T00:17:44.586Z,11.50
2019-02-07T00:20:34.641Z,11.83
2019-02-07T00:23:25.074Z,12.20
2019-02-07T00:26:15.313Z,12.00
2019-02-07T00:29:05.469Z,11.90
2019-02-07T00:31:56.522Z,12.30
2019-02-07T00:34:46.879Z,12.00
2019-02-07T00:37:36.755Z,12.27
2019-02-07T00:40:26.838Z,11.87
2019-02-07T00:43:17.218Z,11.90
2019-02-07T00:46:07.749Z,11.37
2019-02-07T00:48:57.848Z,11.17
2019-02-07T00:51:47.790Z,11.03
2019-02-07T00:54:38.028Z,11.53
2019-02-07T00:57:28.354Z,11.17
2019-02-07T01:00:21.440Z,11.03
2019-02-07T01:03:11.665Z,11.00
2019-02-07T01:06:02.230Z,10.87
2019-02-07T01:08:52.505Z,10.17
2019-02-07T01:11:42.508Z,10.00
2019-02-07T01:14:32.937Z,9.57
2019-02-07T01:17:23.446Z,10.40
2019-02-07T01:20:15.959Z,8.40
2019-02-07T01:23:07.086Z,8.63
2019-02-07T01:25:57.302Z,7.80
2019-02-07T01:28:47.303Z,7.37
2019-02-07T01:31:37.210Z,7.07
2019-02-07T01:34:27.547Z,6.63
2019-02-07T01:37:17.882Z,6.47
2019-02-07T01:40:12.058Z,5.70
2019-02-07T01:43:01.914Z,5.83
2019-02-07T01:45:51.931Z,5.50
2019-02-07T01:48:42.169Z,5.43
2019-02-07T01:51:32.528Z,5.90
2019-02-07T01:54:23.423Z,5.70
2019-02-07T01:57:13.634Z,5.40
2019-02-07T02:00:07.382Z,5.57
2019-02-07T02:02:57.837Z,5.67
2019-02-07T02:05:48.726Z,6.13
2019-02-07T02:08:39.018Z,5.43
2019-02-07T02:11:28.997Z,5.73
2019-02-07T02:14:19.210Z,6.23
2019-02-07T02:17:09.207Z,5.77
2019-02-07T02:19:59.478Z,6.20
2019-02-07T02:22:50.040Z,6.70
2019-02-07T02:25:40.139Z,6.90
2019-02-07T02:28:30.630Z,6.07
2019-02-07T02:31:20.790Z,6.50
2019-02-07T02:34:12.340Z,7.10
2019-02-07T02:37:02.414Z,6.73
2019-02-07T02:39:52.308Z,6.10
2019-02-07T02:42:42.377Z,6.37
2019-02-07T02:45:37.614Z,6.63
2019-02-07T02:48:24.370Z,6.97
2019-02-07T02:51:14.408Z,6.57
2019-02-07T02:54:05.132Z,6.63
2019-02-07T02:56:55.930Z,6.23
2019-02-07T02:59:46.289Z,6.47
2019-02-07T03:03:11.473Z,6.60
2019-02-07T03:06:20.287Z,6.10
2019-02-07T03:09:29.573Z,5.47
2019-02-07T03:12:38.682Z,5.97
2019-02-07T03:15:49.131Z,6.23
2019-02-07T03:18:45.930Z,5.87
2019-02-07T03:21:53.582Z,5.23
2019-02-07T03:25:15.870Z,5.30
2019-02-07T03:28:30.681Z,5.73
2019-02-07T03:31:55.392Z,5.90
2019-02-07T03:35:13.709Z,5.17
2019-02-07T03:38:34.770Z,5.47
2019-02-07T03:41:42.545Z,5.03
2019-02-07T03:44:50.312Z,5.60
2019-02-07T03:47:50.455Z,4.70
2019-02-07T03:51:03.125Z,5.60
2019-02-07T03:54:04.611Z,4.73
2019-02-07T03:57:12.607Z,5.20
2019-02-07T04:00:30.943Z,5.40
2019-02-07T04:03:31.816Z,4.87
2019-02-07T04:06:33.257Z,5.03
2019-02-07T04:09:49.198Z,5.13
2019-02-07T04:13:13.733Z,5.70
2019-02-07T04:16:20.616Z,4.87
2019-02-07T04:19:38.810Z,4.90
2019-02-07T04:22:51.423Z,3.23
2019-02-07T04:26:12.916Z,3.23
2019-02-07T04:29:33.838Z,2.00
2019-02-07T04:32:55.366Z,1.30
2019-02-07T04:36:09.114Z,0.87
2019-02-07T04:39:14.854Z,0.93
2019-02-07T04:42:26.262Z,1.27
2019-02-07T04:45:34.533Z,1.23
2019-02-07T04:48:56.269Z,1.73
2019-02-07T04:51:55.998Z,1.90
2019-02-07T04:54:55.228Z,1.77
2019-02-07T04:58:03.526Z,2.63
2019-02-07T05:01:12.654Z,3.20
2019-02-07T05:04:21.697Z,3.37
2019-02-07T05:07:40.534Z,3.10
2019-02-07T05:10:52.298Z,3.43
2019-02-07T05:13:54.935Z,3.03
2019-02-07T05:17:10.271Z,4.23
2019-02-07T05:20:22.149Z,4.43
2019-02-07T05:23:34.865Z,3.63
2019-02-07T05:26:56.026Z,4.47
2019-02-07T05:30:17.561Z,4.23
2019-02-07T05:33:45.038Z,4.07
2019-02-07T05:37:03.692Z,3.83
2019-02-07T05:39:59.094Z,3.73
2019-02-07T05:43:21.227Z,3.40
2019-02-07T05:46:29.255Z,3.60
2019-02-07T05:49:37.342Z,2.80
2019-02-07T05:53:01.961Z,3.73
2019-02-07T05:56:17.401Z,3.00
2019-02-07T05:59:26.276Z,4.03
2019-02-07T06:02:35.441Z,3.97
2019-02-07T06:05:43.090Z,5.07
2019-02-07T06:09:01.726Z,4.37
2019-02-07T06:12:15.049Z,4.80
2019-02-07T06:15:25.890Z,3.90
2019-02-07T06:18:28.577Z,3.87
2019-02-07T06:21:48.247Z,5.30
2019-02-07T06:24:56.201Z,3.87
2019-02-07T06:28:05.670Z,3.87
2019-02-07T06:31:03.649Z,3.77
2019-02-07T06:34:28.744Z,4.07
2019-02-07T06:37:27.153Z,3.70
2019-02-07T06:40:37.147Z,3.83
2019-02-07T06:43:42.281Z,3.83
2019-02-07T06:46:57.046Z,5.07
2019-02-07T06:50:05.839Z,3.73
2019-02-07T06:53:15.546Z,3.33
2019-02-07T06:56:19.305Z,4.50
2019-02-07T06:59:27.307Z,4.30
2019-02-07T07:02:39.370Z,3.90
2019-02-07T07:05:48.789Z,3.80
2019-02-07T07:09:04.785Z,4.10
2019-02-07T07:12:19.882Z,4.03
2019-02-07T07:15:42.108Z,3.37
2019-02-07T07:18:49.877Z,3.90
2019-02-07T07:21:58.180Z,3.90
2019-02-07T07:25:22.958Z,4.13
2019-02-07T07:28:32.074Z,5.20
2019-02-07T07:31:50.528Z,7.23
2019-02-07T07:35:02.531Z,5.87
2019-02-07T07:38:11.690Z,4.60
2019-02-07T07:41:22.962Z,4.23
2019-02-07T07:44:48.154Z,4.67
2019-02-07T07:47:57.125Z,4.60
2019-02-07T07:51:05.299Z,4.00
2019-02-07T07:54:26.359Z,4.40
2019-02-07T07:57:35.649Z,3.73
2019-02-07T08:00:40.203Z,4.40
2019-02-07T08:03:40.544Z,4.43
2019-02-07T08:06:49.686Z,4.90
2019-02-07T08:10:08.142Z,4.43
2019-02-07T08:13:10.721Z,4.60
2019-02-07T08:16:23.747Z,4.97
2019-02-07T08:19:42.140Z,4.40
2019-02-07T08:22:49.990Z,4.97
2019-02-07T08:26:08.247Z,4.70
2019-02-07T08:29:15.223Z,4.07
2019-02-07T08:32:27.657Z,4.50
2019-02-07T08:35:42.198Z,3.73
2019-02-07T08:38:50.058Z,4.73
2019-02-07T08:42:11.077Z,5.70
2019-02-07T08:45:19.189Z,4.70
2019-02-07T08:48:27.343Z,3.10
2019-02-07T08:51:32.270Z,3.73
2019-02-07T08:54:54.297Z,4.07
2019-02-07T08:58:02.149Z,3.57
2019-02-07T09:01:11.436Z,3.90
2019-02-07T09:04:19.142Z,3.10
2019-02-07T09:07:40.739Z,3.13
2019-02-07T09:10:49.243Z,4.00
2019-02-07T09:14:01.439Z,3.10
2019-02-07T09:17:14.576Z,3.17
2019-02-07T09:20:31.714Z,3.60
2019-02-07T09:23:32.974Z,3.47
2019-02-07T09:26:45.902Z,3.23
2019-02-07T09:30:05.998Z,4.10
2019-02-07T09:33:21.911Z,3.53
2019-02-07T09:36:29.926Z,3.50
2019-02-07T09:39:38.890Z,3.83
2019-02-07T09:43:03.269Z,3.10
2019-02-07T09:46:24.002Z,3.23
2019-02-07T09:49:30.633Z,3.40
2019-02-07T09:52:39.248Z,3.33
2019-02-07T09:55:55.129Z,3.63
2019-02-07T09:58:58.031Z,3.53
2019-02-07T10:02:06.172Z,3.57
2019-02-07T10:05:15.258Z,3.00
2019-02-07T10:08:43.308Z,3.43
2019-02-07T10:11:55.441Z,3.07
2019-02-07T10:15:14.438Z,2.70
2019-02-07T10:18:33.417Z,2.97
2019-02-07T10:21:42.529Z,2.37
2019-02-07T10:24:47.122Z,2.70
2019-02-07T10:27:58.956Z,2.37
2019-02-07T10:31:21.002Z,3.03
2019-02-07T10:34:20.907Z,2.80
2019-02-07T10:37:28.564Z,2.40
2019-02-07T10:40:44.729Z,2.50
2019-02-07T10:43:50.955Z,2.37
2019-02-07T10:46:58.786Z,2.57
2019-02-07T10:50:22.983Z,2.13
2019-02-07T10:53:24.486Z,2.77
2019-02-07T10:56:36.991Z,2.43
2019-02-07T10:59:46.050Z,2.73
2019-02-07T11:02:54.437Z,2.97
2019-02-07T11:05:56.010Z,2.60
2019-02-07T11:09:11.329Z,2.47
2019-02-07T11:12:18.998Z,3.20
2019-02-07T11:15:30.647Z,2.20
2019-02-07T11:18:35.425Z,1.90
2019-02-07T11:21:44.426Z,2.23
2019-02-07T11:24:52.046Z,2.70
2019-02-07T11:28:10.543Z,2.73
2019-02-07T11:31:33.093Z,2.23
2019-02-07T11:34:46.062Z,2.43
2019-02-07T11:38:10.039Z,2.30
2019-02-07T11:41:33.923Z,2.60
2019-02-07T11:44:51.701Z,2.73
2019-02-07T11:48:01.107Z,2.67
2019-02-07T11:51:22.530Z,2.27
2019-02-07T11:54:34.876Z,1.87
2019-02-07T11:57:38.850Z,2.10
2019-02-07T12:00:49.724Z,2.43
2019-02-07T12:04:00.670Z,2.50
2019-02-07T12:07:11.210Z,2.63
2019-02-07T12:10:16.966Z,2.17
2019-02-07T12:13:25.938Z,2.10
2019-02-07T12:16:29.794Z,1.87
2019-02-07T12:19:37.605Z,1.90
2019-02-07T12:22:40.158Z,1.87
2019-02-07T12:25:49.614Z,2.90
2019-02-07T12:28:58.767Z,2.00
2019-02-07T12:32:14.180Z,2.20
2019-02-07T12:35:23.474Z,2.27
2019-02-07T12:38:35.979Z,2.20
2019-02-07T12:41:44.202Z,2.40
2019-02-07T12:44:58.685Z,2.00
2019-02-07T12:48:26.363Z,2.23
2019-02-07T12:51:33.204Z,1.83
2019-02-07T12:54:44.990Z,1.90
2019-02-07T12:57:54.634Z,2.13
2019-02-07T13:01:19.100Z,2.83
2019-02-07T13:04:40.568Z,2.37
2019-02-07T13:07:48.570Z,1.93
2019-02-07T13:11:06.906Z,2.57
2019-02-07T13:14:07.568Z,2.77
2019-02-07T13:17:15.713Z,2.40
2019-02-07T13:20:27.985Z,2.50
2019-02-07T13:23:36.300Z,2.30
2019-02-07T13:26:44.385Z,2.27
2019-02-07T13:29:45.819Z,2.10
2019-02-07T13:33:13.789Z,2.13
2019-02-07T13:36:34.901Z,2.47
2019-02-07T13:39:40.482Z,2.27
2019-02-07T13:42:45.850Z,2.37
2019-02-07T13:45:58.171Z,3.00
2019-02-07T13:49:07.376Z,2.10
2019-02-07T13:52:09.547Z,1.97
2019-02-07T13:55:25.341Z,2.13
2019-02-07T13:58:43.613Z,2.10
2019-02-07T14:01:52.651Z,2.30
2019-02-07T14:04:55.094Z,2.07
2019-02-07T14:08:04.556Z,2.20
2019-02-07T14:11:16.863Z,2.10
2019-02-07T14:14:29.098Z,2.57
2019-02-07T14:17:44.398Z,2.43
2019-02-07T14:20:53.458Z,2.30
2019-02-07T14:24:17.454Z,2.67
2019-02-07T14:27:29.422Z,2.10
2019-02-07T14:30:37.327Z,2.33
2019-02-07T14:33:45.878Z,2.30
2019-02-07T14:36:53.779Z,2.50
2019-02-07T14:40:04.350Z,2.00
2019-02-07T14:43:13.590Z,2.87
2019-02-07T14:46:29.745Z,2.50
2019-02-07T14:49:20.220Z,2.33
2019-02-07T14:52:10.794Z,2.10
2019-02-07T14:55:01.146Z,2.00
2019-02-07T14:57:51.493Z,2.10
2019-02-07T15:00:41.646Z,2.30
2019-02-07T15:03:31.619Z,2.40
2019-02-07T15:06:22.053Z,2.27
2019-02-07T15:09:16.946Z,2.20
2019-02-07T15:12:07.709Z,1.93
2019-02-07T15:14:57.994Z,2.23
2019-02-07T15:17:48.322Z,1.90
2019-02-07T15:20:38.722Z,2.97
2019-02-07T15:23:28.725Z,1.70
2019-02-07T15:26:19.106Z,2.00
2019-02-07T15:29:09.325Z,2.10
2019-02-07T15:31:59.593Z,1.70
2019-02-07T15:34:49.942Z,1.53
2019-02-07T15:37:40.233Z,2.17
2019-02-07T15:40:30.409Z,1.80
2019-02-07T15:43:20.727Z,2.20
2019-02-07T15:46:11.943Z,2.53
2019-02-07T15:49:02.489Z,2.00
2019-02-07T15:51:52.442Z,1.70
2019-02-07T15:54:43.470Z,1.90
2019-02-07T15:57:33.886Z,2.47
2019-02-07T16:00:37.721Z,3.10
2019-02-07T16:03:39.226Z,2.30
2019-02-07T16:06:30.051Z,2.40
2019-02-07T16:09:20.410Z,1.83
2019-02-07T16:12:11.111Z,2.63
2019-02-07T16:15:01.457Z,2.67
2019-02-07T16:17:53.050Z,2.03
2019-02-07T16:20:48.870Z,3.13
2019-02-07T16:23:35.325Z,2.07
2019-02-07T16:26:26.121Z,2.00
2019-02-07T16:29:16.061Z,2.00
2019-02-07T16:32:06.931Z,2.67
2019-02-07T16:34:56.990Z,1.93
2019-02-07T16:37:47.270Z,2.40
2019-02-07T16:40:37.877Z,2.23
2019-02-07T16:43:28.024Z,2.07
2019-02-07T16:46:17.997Z,2.33
2019-02-07T16:49:09.154Z,2.57
2019-02-07T16:52:00.061Z,2.47
2019-02-07T16:54:50.430Z,2.27
2019-02-07T16:57:40.924Z,2.57
2019-02-07T17:00:30.884Z,3.77
2019-02-07T17:03:21.266Z,3.17
2019-02-07T17:06:11.206Z,2.37
2019-02-07T17:09:01.507Z,1.90
2019-02-07T17:11:53.063Z,1.87
2019-02-07T17:14:43.786Z,2.10
2019-02-07T17:17:33.726Z,2.17
2019-02-07T17:20:33.197Z,2.30
2019-02-07T17:23:23.543Z,2.97
2019-02-07T17:26:14.222Z,2.50
2019-02-07T17:29:04.321Z,2.27
2019-02-07T17:31:55.262Z,3.33
2019-02-07T17:34:46.083Z,2.57
2019-02-07T17:37:36.438Z,2.10
2019-02-07T17:40:26.722Z,2.77
2019-02-07T17:43:17.805Z,2.83
2019-02-07T17:46:08.275Z,2.03
2019-02-07T17:48:58.713Z,2.13
2019-02-07T17:51:49.893Z,2.40
2019-02-07T17:54:40.717Z,2.13
2019-02-07T17:57:30.867Z,2.17
2019-02-07T18:00:33.478Z,1.93
2019-02-07T18:03:25.002Z,2.10
2019-02-07T18:06:15.380Z,2.03
2019-02-07T18:09:08.935Z,1.57
2019-02-07T18:12:00.630Z,2.93
2019-02-07T18:14:51.174Z,1.90
2019-02-07T18:17:41.998Z,1.90
2019-02-07T18:20:32.381Z,1.90
2019-02-07T18:23:22.895Z,1.80
2019-02-07T18:26:13.305Z,2.27
2019-02-07T18:29:03.343Z,1.50
2019-02-07T18:31:54.059Z,2.70
2019-02-07T18:34:44.117Z,1.67
2019-02-07T18:37:34.370Z,1.90
2019-02-07T18:40:25.902Z,2.53
2019-02-07T18:43:16.132Z,2.03
2019-02-07T18:46:07.244Z,2.00
2019-02-07T18:48:57.470Z,2.33
2019-02-07T18:51:47.762Z,2.40
2019-02-07T18:54:37.887Z,1.93
2019-02-07T18:57:28.106Z,1.83
2019-02-07T19:00:21.481Z,2.10
2019-02-07T19:03:11.649Z,2.07
2019-02-07T19:06:01.898Z,2.37
2019-02-07T19:08:51.758Z,2.67
2019-02-07T19:11:42.574Z,1.83
2019-02-07T19:14:33.538Z,2.47
2019-02-07T19:17:25.618Z,2.67
2019-02-07T19:20:17.482Z,2.73
2019-02-07T19:23:07.969Z,2.43
2019-02-07T19:25:57.963Z,2.10
2019-02-07T19:28:48.301Z,3.33
2019-02-07T19:31:40.134Z,3.23
2019-02-07T19:34:30.174Z,2.80
2019-02-07T19:37:21.299Z,2.73
2019-02-07T19:40:12.910Z,2.63
2019-02-07T19:43:03.170Z,3.57
2019-02-07T19:45:53.511Z,2.40
2019-02-07T19:48:44.096Z,1.90
2019-02-07T19:51:34.450Z,2.20
2019-02-07T19:54:24.721Z,2.07
2019-02-07T19:57:15.547Z,2.50
2019-02-07T20:00:10.005Z,2.33
2019-02-07T20:03:01.288Z,2.77
2019-02-07T20:05:51.745Z,2.10
2019-02-07T20:08:43.108Z,2.40
2019-02-07T20:11:34.975Z,2.07
2019-02-07T20:14:26.513Z,2.47
2019-02-07T20:17:16.579Z,2.00
2019-02-07T20:20:07.971Z,2.00
2019-02-07T20:22:57.719Z,2.43
2019-02-07T20:25:49.050Z,2.47
2019-02-07T20:28:40.537Z,1.90
2019-02-07T20:31:31.012Z,2.03
2019-02-07T20:34:21.210Z,1.57
2019-02-07T20:37:11.635Z,2.20
2019-02-07T20:40:01.990Z,1.60
2019-02-07T20:42:53.246Z,1.87
2019-02-07T20:45:44.667Z,1.87
2019-02-07T20:48:34.970Z,1.60
2019-02-07T20:51:24.969Z,1.93
2019-02-07T20:54:15.242Z,1.80
2019-02-07T20:57:05.290Z,1.57
2019-02-07T20:59:56.776Z,1.53
2019-02-07T21:02:46.859Z,1.80
2019-02-07T21:05:37.618Z,1.80
2019-02-07T21:08:27.910Z,1.90
2019-02-07T21:11:17.891Z,2.43
2019-02-07T21:14:08.201Z,2.97
2019-02-07T21:16:59.265Z,2.10
2019-02-07T21:19:49.632Z,1.97
2019-02-07T21:22:40.084Z,1.63
2019-02-07T21:25:39.626Z,1.57
2019-02-07T21:28:30.226Z,1.70
2019-02-07T21:31:20.622Z,1.83
2019-02-07T21:34:10.604Z,1.43
2019-02-07T21:37:00.609Z,2.20
2019-02-07T21:39:50.656Z,1.93
2019-02-07T21:42:41.022Z,1.87
2019-02-07T21:45:31.254Z,1.63
2019-02-07T21:48:21.570Z,1.50
2019-02-07T21:51:13.246Z,1.50
2019-02-07T21:54:03.462Z,1.60
2019-02-07T21:56:54.503Z,1.97
2019-02-07T21:59:45.450Z,2.30
2019-02-07T22:02:35.765Z,1.60
2019-02-07T22:05:26.114Z,1.43
2019-02-07T22:08:16.070Z,1.40
2019-02-07T22:11:06.295Z,1.40
2019-02-07T22:13:57.511Z,1.60
2019-02-07T22:16:47.803Z,1.37
2019-02-07T22:19:37.910Z,1.43
2019-02-07T22:22:28.184Z,1.33
2019-02-07T22:25:19.622Z,1.10
2019-02-07T22:28:11.122Z,1.03
2019-02-07T22:31:01.257Z,1.20
2019-02-07T22:33:52.381Z,1.30
2019-02-07T22:36:42.445Z,0.97
2019-02-07T22:39:32.629Z,1.20
2019-02-07T22:42:23.453Z,1.30
2019-02-07T22:45:14.637Z,1.17
2019-02-07T22:48:06.179Z,0.90
2019-02-07T22:50:56.469Z,1.10
2019-02-07T22:53:46.778Z,0.90
2019-02-07T22:56:45.110Z,1.10
2019-02-07T22:59:29.075Z,1.87
2019-02-07T23:02:19.311Z,1.07
2019-02-07T23:05:09.593Z,1.33
2019-02-07T23:08:00.586Z,1.57
2019-02-07T23:10:50.681Z,1.73
2019-02-07T23:13:40.789Z,1.70
2019-02-07T23:16:30.962Z,1.40
2019-02-07T23:19:21.244Z,1.30
2019-02-07T23:22:11.392Z,1.50
2019-02-07T23:25:01.680Z,2.00
2019-02-07T23:27:52.508Z,1.83
2019-02-07T23:30:42.746Z,1.50
2019-02-07T23:33:33.023Z,1.90
2019-02-07T23:36:23.933Z,1.70
2019-02-07T23:39:14.370Z,1.60
2019-02-07T23:42:05.338Z,1.80
2019-02-07T23:44:55.514Z,1.67
2019-02-07T23:47:46.294Z,1.53
2019-02-07T23:50:36.507Z,1.70
2019-02-07T23:53:26.613Z,1.67
2019-02-07T23:56:16.609Z,2.17
2019-02-07T23:59:06.621Z,1.60
